Main page
METAR-TAF:

METAR-TAF

Airports :

Palma de Mallorca, Spain

Palma de Mallorca Airport

latitude: 39-33N, longitude: 002-44E, elevation: 4 m

Current weather observation

The report was made 26 minutes ago, at 05:00 UTC
Wind 4 kt from the East/Northeast
Temperature 6°C
Humidity 93%
Pressure 1019 hPa
Visibility 10 km or more
Few clouds at a height of 2500 ft

METAR: LEPA 260500Z 07004KT 9999 FEW025 06/05 Q1019 NOSIG

Time: 07:26 (05:26 UTC)

Forecast

The report was made 6 hours and 26 minutes ago, at 23:00 UTC
Forecast valid from 26 at 00 UTC to 26 at 24 UTC
Wind 4 kt from variable directions
Visibility 10 km or more
Scattered clouds at a height of 3000 ft
Becoming
from 26 at 09 UTC to 26 at 11 UTC
Wind 8 kt from the East/Southeast
Becoming
from 26 at 18 UTC to 26 at 20 UTC
Wind 7 kt from the Northeast

TAF: LEPA 252300Z 2600/2624 VRB04KT 9999 SCT030 TX20/2612Z TN06/2606Z BECMG 2609/2611 11008KT BECMG 2618/2620 05007KT

Weather observations and forecasts of more than 4000 airports (METAR and TAF reports).

The available stations are represented by yellow and red dots on the map.

Hover mouse over dot to see the name of the station.

Then click to see weather observations and forecasts.

To change the map : click on the green buttons with a black cross to zoom in, on the green button with a dash to zoom out, or on the green arrows for adjacent maps.


METAR-TAF: